Time;durP1;ratioP1;P1;durP2;ratioP2;P2;SDS_P1;SDS_P2;PMS_P1;PMS_P2;Temp;Humidity;BMP_temperature;BMP_pressure;BME280_temperature;BME280_humidity;BME280_pressure;Samples;Min_cycle;Max_cycle;Signal;HPM_P1;HPM_P2
2023/10/26 00:01:13;;;;;;;0.82;0.60;;;;;;;12.07;73.80;96246.75;5107332;28;20190;-75
2023/10/26 00:03:40;;;;;;;0.85;0.70;;;;;;;11.98;74.08;96243.72;5109312;28;20234;-75
2023/10/26 00:06:07;;;;;;;0.93;0.65;;;;;;;12.10;73.94;96241.66;5109463;28;20226;-75
2023/10/26 00:08:34;;;;;;;1.02;0.80;;;;;;;12.07;73.91;96236.72;5106036;28;20199;-75
2023/10/26 00:11:02;;;;;;;0.93;0.80;;;;;;;12.05;73.77;96251.63;5101664;28;20195;-76
2023/10/26 00:13:30;;;;;;;0.70;0.60;;;;;;;12.06;74.12;96251.38;5105781;28;20227;-73
2023/10/26 00:15:56;;;;;;;1.20;0.85;;;;;;;12.08;73.98;96249.22;5107957;28;20206;-73
2023/10/26 00:18:22;;;;;;;1.83;0.70;;;;;;;12.10;74.14;96240.81;5108920;28;20306;-73
2023/10/26 00:20:49;;;;;;;1.10;0.70;;;;;;;12.02;74.49;96250.22;5107231;28;20195;-73
2023/10/26 00:23:17;;;;;;;0.70;0.70;;;;;;;11.97;74.89;96247.50;5107501;28;20215;-73
2023/10/26 00:25:43;;;;;;;1.33;0.60;;;;;;;11.99;74.62;96244.53;5103854;28;20215;-72
2023/10/26 00:28:10;;;;;;;0.85;0.70;;;;;;;11.93;74.72;96246.38;5108389;28;21061;-73
2023/10/26 00:30:36;;;;;;;2.13;0.82;;;;;;;11.83;75.42;96246.25;5105859;28;20282;-73
2023/10/26 00:33:03;;;;;;;1.00;0.70;;;;;;;11.97;74.80;96244.78;5106747;28;20219;-74
2023/10/26 00:35:30;;;;;;;1.13;0.60;;;;;;;11.77;75.66;96241.84;5107297;28;20213;-73
2023/10/26 00:37:56;;;;;;;0.90;0.60;;;;;;;11.99;75.18;96249.94;5107541;28;20213;-74
2023/10/26 00:40:24;;;;;;;1.38;0.60;;;;;;;11.87;75.29;96247.38;5103568;28;21094;-74
2023/10/26 00:42:51;;;;;;;0.80;0.60;;;;;;;11.79;75.88;96250.53;5106475;28;20225;-74
2023/10/26 00:45:18;;;;;;;1.98;0.80;;;;;;;11.77;75.90;96241.84;5107315;28;20235;-74
2023/10/26 00:47:45;;;;;;;1.73;0.70;;;;;;;11.76;75.89;96248.28;5109277;28;20205;-74
2023/10/26 00:50:11;;;;;;;0.93;0.70;;;;;;;11.70;76.43;96252.81;5104671;28;20206;-74
2023/10/26 00:52:39;;;;;;;3.20;0.93;;;;;;;11.66;76.49;96250.91;5107020;28;20228;-74
2023/10/26 00:55:05;;;;;;;1.17;0.90;;;;;;;11.70;76.66;96247.41;5105507;28;20582;-74
2023/10/26 00:57:34;;;;;;;1.00;0.63;;;;;;;11.63;76.88;96241.38;5107233;28;20195;-74
2023/10/26 01:00:01;;;;;;;0.90;0.80;;;;;;;11.62;76.72;96230.81;5103972;28;20278;-74
2023/10/26 01:02:27;;;;;;;1.55;0.88;;;;;;;11.69;76.86;96247.69;5106505;28;21103;-74
2023/10/26 01:04:53;;;;;;;1.45;0.73;;;;;;;11.68;77.04;96246.06;5103208;28;20234;-75
2023/10/26 01:07:20;;;;;;;1.02;0.77;;;;;;;11.72;77.41;96239.03;5101620;28;20195;-74
2023/10/26 01:09:47;;;;;;;6.28;1.60;;;;;;;11.74;77.17;96236.88;5102592;28;20215;-74
2023/10/26 01:12:14;;;;;;;2.85;1.08;;;;;;;11.51;77.25;96210.06;5106901;28;20206;-75
2023/10/26 01:14:42;;;;;;;1.40;1.10;;;;;;;11.60;77.93;96241.06;5106010;28;20234;-74
2023/10/26 01:17:08;;;;;;;1.33;1.00;;;;;;;11.67;77.85;96247.94;5107697;28;20420;-74
2023/10/26 01:19:39;;;;;;;1.45;0.90;;;;;;;11.72;77.51;96244.44;5097002;28;20196;-73
2023/10/26 01:22:07;;;;;;;1.17;1.00;;;;;;;11.75;77.43;96249.38;5099841;28;20676;-75
2023/10/26 01:24:34;;;;;;;1.17;0.80;;;;;;;11.77;76.98;96241.84;5103825;28;20704;-75
2023/10/26 01:27:00;;;;;;;1.00;0.70;;;;;;;11.79;76.82;96242.41;5103625;28;20205;-75
2023/10/26 01:29:27;;;;;;;1.05;0.95;;;;;;;11.76;76.96;96245.59;5105503;28;20222;-74
2023/10/26 01:31:53;;;;;;;1.25;0.80;;;;;;;11.64;77.39;96243.03;5106784;28;20201;-74
2023/10/26 01:34:20;;;;;;;1.50;0.90;;;;;;;11.75;77.05;96252.06;5105370;28;20708;-74
2023/10/26 01:36:46;;;;;;;1.75;0.90;;;;;;;11.63;78.03;96246.81;5105230;28;20712;-74
2023/10/26 01:39:16;;;;;;;2.40;1.00;;;;;;;11.54;78.27;96248.31;5104197;28;21114;-74
2023/10/26 01:41:43;;;;;;;1.30;0.77;;;;;;;11.65;78.05;96249.25;5107956;28;20654;-74
2023/10/26 01:44:09;;;;;;;0.85;0.70;;;;;;;11.54;78.54;96242.91;5106901;28;20214;-75
2023/10/26 01:46:36;;;;;;;1.80;0.70;;;;;;;11.61;78.10;96238.13;5104578;28;20222;-75
2023/10/26 01:49:03;;;;;;;0.70;0.60;;;;;;;11.73;77.73;96243.38;5106517;28;20228;-74
2023/10/26 01:51:30;;;;;;;0.80;0.70;;;;;;;11.66;78.02;96240.06;5104676;28;20209;-75
2023/10/26 01:53:56;;;;;;;1.30;0.90;;;;;;;11.60;77.97;96241.88;5103712;28;20219;-75
2023/10/26 01:56:24;;;;;;;1.50;0.80;;;;;;;11.38;78.83;96233.75;5107016;28;20233;-74
2023/10/26 01:58:50;;;;;;;1.38;0.80;;;;;;;11.03;80.72;96238.72;5104793;28;20201;-74
2023/10/26 02:01:17;;;;;;;1.77;0.90;;;;;;;11.03;80.77;96234.13;5106388;28;20205;-74
2023/10/26 02:03:43;;;;;;;2.08;1.20;;;;;;;11.03;80.83;96239.53;5109115;28;20233;-75
2023/10/26 02:06:10;;;;;;;2.88;0.90;;;;;;;11.07;80.72;96242.53;5109037;28;20223;-74
2023/10/26 02:08:36;;;;;;;1.45;1.00;;;;;;;11.03;81.52;96244.94;5109662;28;20202;-74
2023/10/26 02:11:03;;;;;;;2.08;1.05;;;;;;;10.96;81.72;96246.19;5104094;28;20206;-74
2023/10/26 02:13:30;;;;;;;1.55;0.95;;;;;;;10.83;82.52;96241.09;5109344;28;20237;-75
2023/10/26 02:15:57;;;;;;;2.28;0.95;;;;;;;10.85;82.71;96244.38;5111302;28;20205;-74
2023/10/26 02:18:24;;;;;;;7.78;1.50;;;;;;;10.98;82.34;96250.28;5110854;28;20565;-74
2023/10/26 02:20:50;;;;;;;1.63;0.90;;;;;;;10.98;82.41;96249.47;5104663;28;21022;-74
2023/10/26 02:23:17;;;;;;;1.48;0.85;;;;;;;11.06;81.98;96249.03;5112244;28;20229;-75
2023/10/26 02:25:43;;;;;;;1.73;0.80;;;;;;;11.00;81.95;96247.34;5108692;28;20256;-74
2023/10/26 02:28:15;;;;;;;1.23;1.13;;;;;;;10.74;82.46;96255.06;5097329;28;20290;-74
2023/10/26 02:30:43;;;;;;;1.75;0.80;;;;;;;10.92;81.84;96251.28;5106837;28;20194;-75
2023/10/26 02:33:09;;;;;;;1.92;0.90;;;;;;;11.01;78.37;96246.25;5109805;28;20234;-75
2023/10/26 02:35:36;;;;;;;1.95;1.30;;;;;;;11.19;79.16;96232.44;5107667;28;20195;-75
2023/10/26 02:38:02;;;;;;;0.80;0.80;;;;;;;11.06;77.47;96230.06;5108144;28;20411;-75
2023/10/26 02:40:29;;;;;;;0.95;0.80;;;;;;;10.97;77.32;96227.00;5110844;28;20199;-74
2023/10/26 02:42:55;;;;;;;1.17;0.85;;;;;;;11.23;76.37;96225.44;5106535;28;20698;-74
2023/10/26 02:45:22;;;;;;;1.40;0.70;;;;;;;11.21;76.10;96235.72;5109964;28;20551;-75
2023/10/26 02:47:50;;;;;;;1.45;1.05;;;;;;;11.19;76.12;96245.97;5106383;28;20860;-74
2023/10/26 02:50:16;;;;;;;1.08;0.70;;;;;;;11.16;75.90;96242.94;5108815;28;20208;-74
2023/10/26 02:52:43;;;;;;;1.08;0.85;;;;;;;11.18;75.56;96233.50;5109617;28;20220;-74
2023/10/26 02:55:09;;;;;;;1.30;0.75;;;;;;;11.26;75.13;96233.06;5110953;28;20207;-74
2023/10/26 02:57:36;;;;;;;3.75;0.80;;;;;;;11.28;75.07;96249.06;5105629;28;20282;-74
2023/10/26 03:00:04;;;;;;;2.22;0.70;;;;;;;11.28;74.52;96243.66;5106559;28;20209;-74
2023/10/26 03:02:31;;;;;;;3.17;0.80;;;;;;;11.20;74.36;96239.47;5105352;28;20226;-74
2023/10/26 03:04:59;;;;;;;0.95;0.80;;;;;;;11.18;74.80;96243.50;5107427;28;20206;-74
2023/10/26 03:07:26;;;;;;;1.55;0.80;;;;;;;10.82;74.76;96204.28;5106380;28;20205;-74
2023/10/26 03:09:52;;;;;;;1.10;0.80;;;;;;;11.20;73.99;96234.06;5110775;28;20201;-74
2023/10/26 03:12:19;;;;;;;1.48;0.70;;;;;;;11.24;73.49;96237.09;5102734;28;20707;-74
2023/10/26 03:14:46;;;;;;;1.63;0.90;;;;;;;11.11;73.71;96239.09;5106727;28;20528;-74
2023/10/26 03:17:15;;;;;;;1.30;0.90;;;;;;;11.18;73.22;96235.38;5103855;28;20205;-73
2023/10/26 03:19:42;;;;;;;1.55;0.82;;;;;;;11.21;72.77;96230.28;5109845;28;20297;-74
2023/10/26 03:22:10;;;;;;;0.95;0.85;;;;;;;11.16;72.97;96230.22;5107330;28;20233;-74
2023/10/26 03:24:36;;;;;;;1.17;0.70;;;;;;;11.09;73.31;96232.28;5105865;28;20205;-74
2023/10/26 03:27:02;;;;;;;0.90;0.70;;;;;;;11.04;73.01;96226.81;5103962;28;20710;-75
2023/10/26 03:29:29;;;;;;;0.80;0.60;;;;;;;11.11;73.08;96219.31;5108130;28;20202;-74
2023/10/26 03:31:56;;;;;;;2.15;0.60;;;;;;;11.02;73.06;96235.19;5110803;28;20194;-74
2023/10/26 03:34:22;;;;;;;0.80;0.70;;;;;;;11.05;73.19;96231.13;5109804;28;20194;-75
2023/10/26 03:36:49;;;;;;;0.90;0.80;;;;;;;11.07;73.09;96229.81;5106727;28;20293;-74
2023/10/26 03:39:16;;;;;;;1.00;0.70;;;;;;;11.19;72.53;96232.44;5108804;28;20305;-74
2023/10/26 03:41:43;;;;;;;2.15;0.80;;;;;;;11.02;72.86;96228.97;5106659;28;20205;-74
2023/10/26 03:44:09;;;;;;;1.23;0.80;;;;;;;11.05;73.47;96229.25;5109012;28;20225;-74
2023/10/26 03:46:36;;;;;;;1.05;0.77;;;;;;;10.98;73.21;96228.63;5104994;28;20233;-74
2023/10/26 03:49:02;;;;;;;1.88;1.00;;;;;;;11.02;73.13;96235.19;5108122;28;20198;-74
2023/10/26 03:51:29;;;;;;;2.25;0.80;;;;;;;11.06;73.04;96235.47;5108445;28;20209;-74
2023/10/26 03:53:55;;;;;;;1.35;0.95;;;;;;;11.12;72.86;96248.03;5108103;28;20214;-74
2023/10/26 03:56:23;;;;;;;1.30;0.60;;;;;;;11.08;73.07;96244.19;5108427;28;20200;-74
2023/10/26 03:58:49;;;;;;;0.60;0.60;;;;;;;11.07;73.00;96237.94;5109298;28;20201;-74
2023/10/26 04:01:16;;;;;;;1.75;0.75;;;;;;;11.10;73.10;96236.63;5106231;28;20562;-74
2023/10/26 04:03:42;;;;;;;0.80;0.75;;;;;;;11.18;73.22;96246.22;5106815;28;20750;-74
2023/10/26 04:06:09;;;;;;;1.25;0.70;;;;;;;11.10;73.47;96242.03;5108596;28;20230;-74
2023/10/26 04:08:36;;;;;;;1.23;0.93;;;;;;;10.99;73.83;96238.38;5095835;28;20655;-75
2023/10/26 04:11:03;;;;;;;0.80;0.80;;;;;;;10.94;73.89;96242.91;5102552;28;20203;-75
2023/10/26 04:13:31;;;;;;;1.83;1.08;;;;;;;10.71;75.69;96239.34;5101083;28;20240;-74
2023/10/26 04:16:01;;;;;;;1.60;0.82;;;;;;;10.74;76.33;96228.00;5100646;28;20281;-75
2023/10/26 04:18:28;;;;;;;1.63;0.80;;;;;;;10.63;77.17;96228.09;5109626;28;20203;-77
2023/10/26 04:20:55;;;;;;;1.38;0.90;;;;;;;10.64;78.22;96227.84;5108226;28;20202;-76
2023/10/26 04:23:22;;;;;;;1.00;0.85;;;;;;;10.35;79.88;96226.31;5109451;28;20218;-76
2023/10/26 04:25:49;;;;;;;1.38;0.93;;;;;;;10.26;80.70;96225.06;5103663;28;20700;-75
2023/10/26 04:28:15;;;;;;;1.45;1.02;;;;;;;10.20;81.66;96215.22;5107288;28;20209;-77
2023/10/26 04:30:44;;;;;;;1.42;1.13;;;;;;;10.15;82.33;96220.50;5106767;28;20194;-76
2023/10/26 04:33:11;;;;;;;3.00;1.30;;;;;;;10.01;82.70;96231.66;5102050;28;20229;-76
2023/10/26 04:35:41;;;;;;;2.35;1.10;;;;;;;10.00;82.35;96227.31;5098034;28;20213;-76
2023/10/26 04:38:08;;;;;;;1.33;0.95;;;;;;;9.97;82.91;96225.09;5108885;28;20213;-75
2023/10/26 04:40:34;;;;;;;1.45;0.80;;;;;;;9.84;83.13;96225.38;5124183;27;20193;-75
2023/10/26 04:43:01;;;;;;;2.45;1.20;;;;;;;9.79;83.77;96222.56;5102366;28;20244;-74
2023/10/26 04:45:28;;;;;;;1.20;1.10;;;;;;;9.97;83.42;96225.09;5086571;28;20296;-74
2023/10/26 04:47:56;;;;;;;2.22;1.10;;;;;;;9.96;83.21;96220.75;5095015;28;20204;-75
2023/10/26 04:50:23;;;;;;;1.75;1.08;;;;;;;9.92;83.65;96225.00;5101318;28;20286;-76
2023/10/26 04:52:49;;;;;;;4.40;1.40;;;;;;;9.98;83.18;96224.03;5107742;28;20228;-75
2023/10/26 04:55:16;;;;;;;1.10;0.95;;;;;;;9.96;83.15;96217.22;5103225;28;20373;-76
2023/10/26 04:57:43;;;;;;;2.55;1.13;;;;;;;9.95;83.14;96212.88;5094618;28;20219;-75
2023/10/26 05:00:10;;;;;;;1.90;1.08;;;;;;;9.88;83.51;96212.22;5099860;28;20632;-77
2023/10/26 05:02:36;;;;;;;2.78;1.30;;;;;;;9.90;83.40;96210.91;5104057;28;20220;-77
2023/10/26 05:05:05;;;;;;;1.23;1.13;;;;;;;9.78;83.68;96216.34;5103828;28;20198;-80
2023/10/26 05:07:32;;;;;;;1.83;1.20;;;;;;;9.71;84.12;96215.72;5100990;28;20229;-72
2023/10/26 05:09:58;;;;;;;1.10;1.00;;;;;;;9.92;83.47;96206.06;5098489;28;20201;-77
2023/10/26 05:12:25;;;;;;;1.30;1.00;;;;;;;9.87;83.40;96205.97;5100393;28;20272;-76
2023/10/26 05:14:51;;;;;;;2.38;1.40;;;;;;;9.81;83.28;96206.94;5105614;28;20206;-73
2023/10/26 05:17:18;;;;;;;1.27;0.90;;;;;;;9.83;83.01;96199.41;5106745;28;20206;-76
2023/10/26 05:19:44;;;;;;;1.55;1.27;;;;;;;9.74;83.31;96201.72;5108674;28;20203;-76
2023/10/26 05:22:13;;;;;;;1.35;1.00;;;;;;;9.87;82.77;96205.97;5101417;28;20230;-78
2023/10/26 05:24:38;;;;;;;1.58;1.10;;;;;;;9.71;83.25;96214.88;5104040;28;20590;-78
2023/10/26 05:27:05;;;;;;;1.60;1.10;;;;;;;9.73;82.91;96199.25;5105518;28;20308;-76
2023/10/26 05:29:32;;;;;;;2.13;1.20;;;;;;;9.88;82.38;96196.81;5105368;28;20209;-75
2023/10/26 05:31:58;;;;;;;2.75;1.15;;;;;;;9.91;80.55;96192.81;5106438;28;20214;-78
2023/10/26 05:34:25;;;;;;;2.13;1.10;;;;;;;9.93;80.64;96194.22;5106373;28;20205;-76
2023/10/26 05:36:51;;;;;;;2.15;1.55;;;;;;;10.08;80.32;96199.84;5106144;28;20213;-76
2023/10/26 05:39:19;;;;;;;1.00;0.90;;;;;;;10.16;80.18;96203.22;5108100;28;20224;-76
2023/10/26 05:41:46;;;;;;;2.60;1.50;;;;;;;10.10;80.60;96195.03;5102661;28;20215;-73
2023/10/26 05:44:13;;;;;;;3.13;1.20;;;;;;;10.11;80.53;96193.97;5098655;28;20210;-77
2023/10/26 05:46:39;;;;;;;1.92;1.15;;;;;;;10.23;79.87;96193.13;5097786;28;20237;-78
2023/10/26 05:49:06;;;;;;;1.98;1.35;;;;;;;10.17;80.41;96188.66;5103541;28;20285;-78
2023/10/26 05:51:32;;;;;;;1.13;1.02;;;;;;;10.10;80.50;96178.00;5104134;28;20235;-78
2023/10/26 05:54:00;;;;;;;1.40;1.30;;;;;;;10.16;80.54;96182.44;5103633;28;20266;-78
2023/10/26 05:56:28;;;;;;;1.45;1.10;;;;;;;9.96;81.55;96182.91;5103134;28;20199;-78
2023/10/26 05:58:54;;;;;;;1.05;0.95;;;;;;;10.05;81.42;96188.75;5102037;28;20194;-78
2023/10/26 06:01:21;;;;;;;1.73;1.20;;;;;;;9.98;81.32;96186.19;5103412;28;20780;-78
2023/10/26 06:03:47;;;;;;;2.85;1.20;;;;;;;10.30;80.09;96175.66;5103965;28;20234;-78
2023/10/26 06:06:14;;;;;;;2.85;1.25;;;;;;;10.34;79.66;96173.28;5104516;28;20225;-77
2023/10/26 06:08:40;;;;;;;2.67;1.60;;;;;;;10.38;79.45;96175.28;5101844;28;20202;-78
2023/10/26 06:11:07;;;;;;;3.00;1.30;;;;;;;10.27;79.58;96181.56;5100053;28;20211;-78
2023/10/26 06:13:34;;;;;;;1.52;1.08;;;;;;;10.49;79.24;96191.63;5098025;28;20233;-78
2023/10/26 06:16:01;;;;;;;2.13;1.23;;;;;;;10.66;78.38;96187.84;5089601;28;20676;-78
2023/10/26 06:18:27;;;;;;;1.40;1.00;;;;;;;10.40;79.27;96180.41;5095772;28;20214;-78
2023/10/26 06:20:58;;;;;;;3.05;1.52;;;;;;;10.53;79.23;96185.47;5098800;28;20194;-78
2023/10/26 06:23:24;;;;;;;2.03;1.10;;;;;;;10.66;78.54;96182.44;5104690;28;20215;-78
2023/10/26 06:25:57;;;;;;;1.70;1.23;;;;;;;10.61;78.96;96185.06;5095919;28;20750;-77
2023/10/26 06:28:23;;;;;;;1.83;1.10;;;;;;;10.82;78.13;96196.19;5105265;28;20211;-77
2023/10/26 06:30:51;;;;;;;3.72;1.23;;;;;;;10.95;77.61;96185.00;5104254;28;20209;-77
2023/10/26 06:33:18;;;;;;;2.80;1.10;;;;;;;11.02;77.61;96191.06;5098328;28;20222;-76
2023/10/26 06:35:44;;;;;;;1.50;1.05;;;;;;;11.06;77.52;96184.03;5104142;28;20274;-77
2023/10/26 06:38:11;;;;;;;1.67;0.98;;;;;;;11.22;77.01;96193.19;5103852;28;20305;-76
2023/10/26 06:40:37;;;;;;;2.03;1.50;;;;;;;11.25;77.16;96190.81;5108645;28;20275;-76
2023/10/26 06:43:04;;;;;;;1.30;1.10;;;;;;;11.27;76.88;96193.28;5095119;28;20225;-77
2023/10/26 06:45:31;;;;;;;2.38;1.40;;;;;;;11.44;76.19;96184.00;5098065;28;20190;-77
2023/10/26 06:47:59;;;;;;;3.05;1.20;;;;;;;11.45;76.47;96182.91;5093553;28;20308;-77
2023/10/26 06:50:25;;;;;;;3.28;1.15;;;;;;;11.42;76.36;96196.97;5099873;28;20199;-78
2023/10/26 06:52:54;;;;;;;3.58;1.33;;;;;;;11.55;76.19;96189.53;5103239;28;20245;-77
2023/10/26 06:55:20;;;;;;;2.55;1.10;;;;;;;11.71;75.96;96194.84;5094448;28;20239;-78
2023/10/26 06:57:47;;;;;;;3.42;1.40;;;;;;;11.64;75.68;96183.41;5099559;28;20220;-78
2023/10/26 07:00:14;;;;;;;1.60;1.20;;;;;;;11.45;77.45;96191.03;5103404;28;20197;-80
2023/10/26 07:02:40;;;;;;;1.60;1.20;;;;;;;11.58;77.61;96191.75;5102672;28;20215;-80
2023/10/26 07:05:09;;;;;;;2.17;1.05;;;;;;;11.60;77.40;96195.00;5086277;28;20203;-80
2023/10/26 07:07:36;;;;;;;1.67;1.30;;;;;;;11.36;78.87;96192.59;5103109;28;20850;-76
2023/10/26 07:10:03;;;;;;;2.17;1.30;;;;;;;11.61;78.48;96188.53;5103493;28;20199;-86
2023/10/26 07:12:30;;;;;;;3.45;1.50;;;;;;;11.50;79.21;96190.28;5105790;28;20215;-80
2023/10/26 07:14:59;;;;;;;1.85;1.10;;;;;;;11.52;79.55;96190.84;5096181;28;20219;-81
2023/10/26 07:17:26;;;;;;;3.40;1.70;;;;;;;11.61;80.22;96189.34;5096215;28;20883;-80
2023/10/26 07:19:53;;;;;;;2.30;2.05;;;;;;;11.53;82.28;96194.38;5089561;28;20206;-80
2023/10/26 07:22:21;;;;;;;1.20;1.10;;;;;;;11.68;79.60;96206.22;5086348;28;20936;-81
2023/10/26 07:24:47;;;;;;;2.20;1.20;;;;;;;11.61;78.48;96188.53;5100096;28;20293;-80
2023/10/26 07:27:14;;;;;;;1.90;1.30;;;;;;;11.69;79.28;96191.59;5098576;28;20215;-81
2023/10/26 07:29:41;;;;;;;4.60;1.40;;;;;;;11.72;78.01;96180.22;5108098;28;20206;-81
2023/10/26 07:32:08;;;;;;;1.63;1.45;;;;;;;11.59;79.01;96186.06;5106583;28;20593;-80
2023/10/26 07:34:34;;;;;;;2.38;1.50;;;;;;;11.62;78.95;96195.56;5101101;28;20207;-80
2023/10/26 07:37:01;;;;;;;1.50;1.40;;;;;;;11.66;79.23;96191.28;5097832;28;20195;-80
2023/10/26 07:39:29;;;;;;;1.52;1.20;;;;;;;11.59;79.31;96187.97;5095174;28;20206;-80
2023/10/26 07:41:55;;;;;;;2.65;1.40;;;;;;;11.69;79.37;96175.34;5102959;28;20582;-81
2023/10/26 07:44:22;;;;;;;2.85;1.55;;;;;;;11.91;79.03;96178.03;5117620;27;20668;-80
2023/10/26 07:46:48;;;;;;;1.98;1.50;;;;;;;11.87;78.83;96176.91;5101326;28;20219;-81
2023/10/26 07:49:15;;;;;;;2.00;1.30;;;;;;;11.61;79.48;96174.97;5103052;28;20214;-80
2023/10/26 07:51:41;;;;;;;1.90;1.40;;;;;;;11.90;79.70;96162.84;5105268;28;20703;-80
2023/10/26 07:54:08;;;;;;;2.03;1.55;;;;;;;12.14;79.70;96170.63;5087074;28;20206;-80
2023/10/26 07:56:39;;;;;;;2.30;1.75;;;;;;;12.11;79.82;96155.69;5102455;28;20220;-81
2023/10/26 07:59:06;;;;;;;2.95;2.47;;;;;;;11.95;80.29;96165.59;5100504;28;20211;-80
2023/10/26 08:01:32;;;;;;;2.45;2.08;;;;;;;12.10;81.00;96175.75;5095360;28;20629;-81
2023/10/26 08:03:59;;;;;;;3.47;1.98;;;;;;;12.00;81.01;96176.50;5105068;28;20287;-83
2023/10/26 08:06:25;;;;;;;2.15;1.60;;;;;;;11.95;81.05;96173.72;5102803;28;20202;-80
2023/10/26 08:08:52;;;;;;;2.88;1.63;;;;;;;11.70;82.93;96171.53;5098551;28;20624;-80
2023/10/26 08:11:19;;;;;;;2.40;1.90;;;;;;;11.80;83.30;96181.69;5097662;28;20199;-80
2023/10/26 08:13:47;;;;;;;4.05;1.50;;;;;;;11.85;82.73;96165.50;5105885;28;20698;-81
2023/10/26 08:16:13;;;;;;;4.25;1.85;;;;;;;11.89;81.98;96163.91;5104905;28;20290;-81
2023/10/26 08:18:42;;;;;;;2.05;1.50;;;;;;;11.95;81.82;96162.88;5098957;28;20205;-80
2023/10/26 08:21:08;;;;;;;3.15;1.85;;;;;;;11.91;81.57;96167.19;5105777;28;20231;-80
2023/10/26 08:23:35;;;;;;;1.80;1.58;;;;;;;11.96;82.03;96156.38;5105568;28;20215;-80
2023/10/26 08:26:06;;;;;;;2.20;1.58;;;;;;;11.82;82.90;96167.88;5108617;28;20556;-80
2023/10/26 08:28:33;;;;;;;3.22;1.70;;;;;;;11.96;82.85;96174.56;5095400;28;20230;-80
2023/10/26 08:31:01;;;;;;;2.28;1.90;;;;;;;11.93;82.32;96177.78;5100743;28;20195;-80
2023/10/26 08:33:28;;;;;;;2.30;2.03;;;;;;;12.03;82.93;96170.53;5098799;28;20228;-80
2023/10/26 08:35:54;;;;;;;3.05;1.85;;;;;;;12.04;82.67;96166.75;5104450;28;20754;-80
2023/10/26 08:38:22;;;;;;;3.58;2.10;;;;;;;11.93;83.14;96165.03;5102378;28;20229;-80
2023/10/26 08:40:51;;;;;;;2.47;1.70;;;;;;;12.08;82.94;96164.34;5090702;28;20213;-80
2023/10/26 08:43:17;;;;;;;2.50;2.30;;;;;;;12.08;82.71;96158.91;5103344;28;20218;-84
2023/10/26 08:45:44;;;;;;;2.72;2.17;;;;;;;12.18;82.51;96174.47;5106324;28;20221;-80
2023/10/26 08:48:15;;;;;;;3.33;2.20;;;;;;;12.13;82.22;96166.28;5098380;28;20233;-80
2023/10/26 08:50:42;;;;;;;22.15;2.70;;;;;;;12.20;82.09;96180.44;5096134;28;20198;-80
2023/10/26 08:53:08;;;;;;;2.35;2.15;;;;;;;12.12;82.52;96195.28;5105338;28;20301;-80
2023/10/26 08:55:35;;;;;;;3.90;2.15;;;;;;;12.27;82.43;96191.91;5098158;28;20210;-80
2023/10/26 08:58:03;;;;;;;2.95;2.05;;;;;;;12.32;82.65;96181.09;5087012;28;20214;-80
2023/10/26 09:00:30;;;;;;;4.50;2.40;;;;;;;12.44;83.27;96187.16;5081244;28;20211;-80
2023/10/26 09:02:57;;;;;;;2.50;2.30;;;;;;;12.41;83.16;96188.50;5098398;28;20229;-80
2023/10/26 09:05:25;;;;;;;5.82;2.88;;;;;;;12.23;83.76;96179.94;5106082;28;20199;-80
2023/10/26 09:07:52;;;;;;;3.35;2.30;;;;;;;12.31;84.54;96176.75;5084417;28;20219;-80
2023/10/26 09:10:29;;;;;;;3.28;2.97;;;;;;;12.32;84.81;96172.97;5083005;28;22623;-80
2023/10/26 09:13:00;;;;;;;3.65;2.80;;;;;;;12.34;85.34;96173.53;5076653;28;27522;-81
2023/10/26 09:15:27;;;;;;;3.67;2.60;;;;;;;12.32;86.91;96167.53;5099915;28;20260;-80
2023/10/26 09:17:56;;;;;;;4.40;2.80;;;;;;;11.90;88.86;96133.00;5098905;28;20205;-81
2023/10/26 09:20:26;;;;;;;2.88;2.67;;;;;;;12.16;87.44;96185.56;5104158;28;20289;-80
2023/10/26 09:22:52;;;;;;;3.45;2.63;;;;;;;12.40;86.87;96181.44;5095612;28;20315;-80
2023/10/26 09:25:20;;;;;;;3.13;2.85;;;;;;;12.37;87.37;96187.38;5103579;28;20558;-80
2023/10/26 09:27:47;;;;;;;4.00;2.75;;;;;;;12.37;87.95;96175.69;5092396;28;20206;-81
2023/10/26 09:30:25;;;;;;;3.03;2.75;;;;;;;12.33;88.59;96180.84;5104693;28;20213;-81
2023/10/26 09:32:52;;;;;;;3.92;2.50;;;;;;;12.29;88.45;96185.16;5101702;28;20869;-80
2023/10/26 09:35:30;;;;;;;4.78;2.75;;;;;;;12.31;89.66;96193.03;5093725;28;20203;-81
2023/10/26 09:37:57;;;;;;;3.97;3.00;;;;;;;12.14;89.27;96198.56;5096762;28;20217;-81
2023/10/26 09:40:25;;;;;;;3.10;2.88;;;;;;;11.99;92.04;96187.59;5091591;28;20290;-82
2023/10/26 09:42:51;;;;;;;4.07;3.42;;;;;;;12.18;91.09;96196.16;5096623;28;20215;-84
2023/10/26 09:45:19;;;;;;;3.72;3.05;;;;;;;12.27;89.28;96202.75;5101990;28;20199;-82
2023/10/26 09:47:46;;;;;;;4.10;3.65;;;;;;;12.31;88.89;96220.16;5099526;28;20211;-83
2023/10/26 09:50:13;;;;;;;4.53;4.13;;;;;;;12.15;89.44;96223.78;5102632;28;20291;-86
2023/10/26 09:52:42;;;;;;;4.82;3.85;;;;;;;12.05;90.26;96228.03;5103343;28;20356;-74
2023/10/26 09:55:10;;;;;;;4.10;3.80;;;;;;;11.95;90.43;96240.69;5101427;28;20290;-81
2023/10/26 09:57:41;;;;;;;4.72;3.75;;;;;;;11.91;91.86;96242.25;5121625;28;20240;-86
2023/10/26 10:00:10;;;;;;;5.45;4.28;;;;;;;11.90;92.84;96244.16;5105827;28;20197;-83
2023/10/26 10:02:36;;;;;;;5.05;4.00;;;;;;;11.89;92.30;96228.97;5103808;28;20253;-83
2023/10/26 10:05:04;;;;;;;4.57;4.00;;;;;;;11.76;93.64;96218.47;5099326;28;20210;-84
2023/10/26 10:07:45;;;;;;;5.70;4.65;;;;;;;11.59;95.01;96206.91;5101319;28;20231;-84
2023/10/26 10:10:13;;;;;;;4.47;4.00;;;;;;;11.64;95.40;96201.56;5099397;28;20196;-82
2023/10/26 10:12:42;;;;;;;5.40;4.40;;;;;;;11.60;95.09;96201.25;5102798;28;20219;-82
2023/10/26 10:15:09;;;;;;;6.07;3.97;;;;;;;11.59;97.39;96194.19;5104920;28;20215;-82
2023/10/26 10:18:09;;;;;;;4.70;4.30;;;;;;;11.84;96.05;96223.50;5100296;28;20199;-87
2023/10/26 10:20:37;;;;;;;4.70;4.20;;;;;;;11.91;95.72;96231.41;5100776;28;20224;-85
2023/10/26 10:23:05;;;;;;;5.35;4.85;;;;;;;11.79;95.25;96212.59;5103945;28;20218;-84
2023/10/26 10:25:54;;;;;;;5.53;4.75;;;;;;;11.83;96.47;96213.72;5107721;28;20206;-84
2023/10/26 10:28:21;;;;;;;4.70;4.30;;;;;;;11.92;95.48;96214.09;5105113;28;20298;-81
2023/10/26 10:30:50;;;;;;;4.93;4.53;;;;;;;11.88;97.98;96202.94;5106337;28;20205;-82
2023/10/26 10:33:22;;;;;;;10.07;9.10;;;;;;;11.89;97.59;96188.31;5107335;28;20551;-82
2023/10/26 10:35:52;;;;;;;5.30;4.80;;;;;;;11.87;97.84;96181.50;5108587;28;20195;-82
2023/10/26 10:38:23;;;;;;;3.70;3.35;;;;;;;12.02;97.00;96190.59;5109069;28;20199;-82
2023/10/26 10:41:14;;;;;;;3.58;3.28;;;;;;;11.95;96.13;96205.44;5099367;28;20211;-82
2023/10/26 10:43:44;;;;;;;3.90;3.60;;;;;;;11.85;95.13;96206.16;5107216;28;20233;-82
2023/10/26 10:46:15;;;;;;;4.30;4.00;;;;;;;11.90;95.47;96214.34;5108506;28;20203;-81
2023/10/26 10:48:59;;;;;;;4.22;3.92;;;;;;;11.84;94.40;96212.63;5106881;28;20230;-81
2023/10/26 10:51:31;;;;;;;4.03;3.75;;;;;;;11.74;96.09;96204.38;5101805;28;20712;-81
2023/10/26 10:53:59;;;;;;;3.97;3.78;;;;;;;11.79;95.62;96218.00;5099665;28;20198;-81
2023/10/26 10:56:26;;;;;;;4.22;3.83;;;;;;;11.67;95.29;96206.47;5102533;28;20199;-82
2023/10/26 10:58:53;;;;;;;4.00;3.70;;;;;;;11.59;96.04;96201.50;5107257;28;20224;-81
2023/10/26 11:01:20;;;;;;;4.47;4.18;;;;;;;11.75;96.71;96193.28;5109352;28;20207;-81
2023/10/26 11:03:47;;;;;;;4.35;4.05;;;;;;;11.83;95.37;96197.44;5106515;28;20207;-82
2023/10/26 11:06:14;;;;;;;4.85;4.38;;;;;;;11.86;96.02;96196.94;5105924;28;20202;-83
2023/10/26 11:08:41;;;;;;;3.20;2.90;;;;;;;11.81;96.60;96207.72;5097781;28;20227;-83
2023/10/26 11:11:09;;;;;;;3.47;3.17;;;;;;;12.08;96.28;96208.53;5105859;28;20212;-82
2023/10/26 11:13:35;;;;;;;3.42;3.13;;;;;;;11.81;96.25;96188.75;5105329;28;20480;-81
2023/10/26 11:16:02;;;;;;;4.00;3.65;;;;;;;11.72;96.21;96195.66;5103612;28;20199;-82
2023/10/26 11:18:28;;;;;;;3.20;2.90;;;;;;;11.62;97.13;96185.56;5100612;28;20218;-81
2023/10/26 11:20:55;;;;;;;3.33;3.03;;;;;;;11.85;97.72;96184.47;5104185;28;21096;-81
2023/10/26 11:23:23;;;;;;;3.08;2.88;;;;;;;11.87;97.23;96187.75;5092367;28;20352;-82
2023/10/26 11:25:50;;;;;;;3.78;3.45;;;;;;;12.18;97.32;96182.59;5107310;28;20194;-82
2023/10/26 11:28:33;;;;;;;4.00;3.40;;;;;;;12.34;96.30;96185.19;5104165;28;20226;-82
2023/10/26 11:31:00;;;;;;;4.18;3.50;;;;;;;12.08;96.18;96172.47;5108245;28;20207;-81
2023/10/26 11:33:30;;;;;;;3.00;2.80;;;;;;;12.06;99.13;96182.75;5105149;28;20199;-81
2023/10/26 11:35:56;;;;;;;3.13;2.83;;;;;;;12.24;97.11;96171.53;5096531;28;20207;-79